sensor_id;sensor_type;location;lat;lon;timestamp;P1;durP1;ratioP1;P2;durP2;ratioP2
15063;SDS011;7631;52.088;5.088;2023-12-20T00:00:51;1.83;;;1.20;;
15063;SDS011;7631;52.088;5.088;2023-12-20T00:03:17;3.00;;;1.33;;
15063;SDS011;7631;52.088;5.088;2023-12-20T00:05:42;2.03;;;1.33;;
15063;SDS011;7631;52.088;5.088;2023-12-20T00:08:07;2.40;;;1.50;;
15063;SDS011;7631;52.088;5.088;2023-12-20T00:10:32;1.73;;;1.10;;
15063;SDS011;7631;52.088;5.088;2023-12-20T00:12:57;2.53;;;1.17;;
15063;SDS011;7631;52.088;5.088;2023-12-20T00:15:23;3.23;;;1.40;;
15063;SDS011;7631;52.088;5.088;2023-12-20T00:17:48;2.43;;;1.33;;
15063;SDS011;7631;52.088;5.088;2023-12-20T00:20:13;2.57;;;1.50;;
15063;SDS011;7631;52.088;5.088;2023-12-20T00:22:38;1.70;;;1.17;;
15063;SDS011;7631;52.088;5.088;2023-12-20T00:25:03;2.00;;;1.20;;
15063;SDS011;7631;52.088;5.088;2023-12-20T00:27:29;3.40;;;1.20;;
15063;SDS011;7631;52.088;5.088;2023-12-20T00:29:54;4.33;;;1.47;;
15063;SDS011;7631;52.088;5.088;2023-12-20T00:32:20;4.77;;;1.30;;
15063;SDS011;7631;52.088;5.088;2023-12-20T00:34:45;2.23;;;1.30;;
15063;SDS011;7631;52.088;5.088;2023-12-20T00:37:10;3.23;;;1.43;;
15063;SDS011;7631;52.088;5.088;2023-12-20T00:39:35;3.40;;;1.30;;
15063;SDS011;7631;52.088;5.088;2023-12-20T00:42:00;1.87;;;1.00;;
15063;SDS011;7631;52.088;5.088;2023-12-20T00:44:26;2.93;;;1.50;;
15063;SDS011;7631;52.088;5.088;2023-12-20T00:46:51;3.23;;;1.07;;
15063;SDS011;7631;52.088;5.088;2023-12-20T00:49:16;4.33;;;1.73;;
15063;SDS011;7631;52.088;5.088;2023-12-20T00:51:41;3.17;;;1.43;;
15063;SDS011;7631;52.088;5.088;2023-12-20T00:54:07;5.13;;;1.27;;
15063;SDS011;7631;52.088;5.088;2023-12-20T00:56:32;2.77;;;1.30;;
15063;SDS011;7631;52.088;5.088;2023-12-20T00:58:57;2.50;;;1.20;;
15063;SDS011;7631;52.088;5.088;2023-12-20T01:01:22;3.17;;;1.20;;
15063;SDS011;7631;52.088;5.088;2023-12-20T01:03:47;2.40;;;1.20;;
15063;SDS011;7631;52.088;5.088;2023-12-20T01:06:13;2.67;;;1.30;;
15063;SDS011;7631;52.088;5.088;2023-12-20T01:08:38;5.10;;;1.37;;
15063;SDS011;7631;52.088;5.088;2023-12-20T01:11:04;4.60;;;1.50;;
15063;SDS011;7631;52.088;5.088;2023-12-20T01:13:29;2.47;;;1.00;;
15063;SDS011;7631;52.088;5.088;2023-12-20T01:15:55;2.80;;;1.17;;
15063;SDS011;7631;52.088;5.088;2023-12-20T01:18:20;3.33;;;1.00;;
15063;SDS011;7631;52.088;5.088;2023-12-20T01:20:45;3.20;;;1.30;;
15063;SDS011;7631;52.088;5.088;2023-12-20T01:23:11;3.30;;;1.43;;
15063;SDS011;7631;52.088;5.088;2023-12-20T01:25:36;2.73;;;1.00;;
15063;SDS011;7631;52.088;5.088;2023-12-20T01:28:01;3.33;;;1.23;;
15063;SDS011;7631;52.088;5.088;2023-12-20T01:30:28;4.63;;;1.20;;
15063;SDS011;7631;52.088;5.088;2023-12-20T01:32:53;4.50;;;1.20;;
15063;SDS011;7631;52.088;5.088;2023-12-20T01:35:19;2.13;;;1.00;;
15063;SDS011;7631;52.088;5.088;2023-12-20T01:37:44;4.10;;;1.50;;
15063;SDS011;7631;52.088;5.088;2023-12-20T01:40:09;3.03;;;1.20;;
15063;SDS011;7631;52.088;5.088;2023-12-20T01:42:35;3.00;;;1.30;;
15063;SDS011;7631;52.088;5.088;2023-12-20T01:45:00;3.13;;;1.30;;
15063;SDS011;7631;52.088;5.088;2023-12-20T01:47:25;3.60;;;1.07;;
15063;SDS011;7631;52.088;5.088;2023-12-20T01:49:52;3.07;;;1.20;;
15063;SDS011;7631;52.088;5.088;2023-12-20T01:52:17;2.80;;;1.33;;
15063;SDS011;7631;52.088;5.088;2023-12-20T01:54:42;3.17;;;1.20;;
15063;SDS011;7631;52.088;5.088;2023-12-20T01:57:08;3.37;;;1.57;;
15063;SDS011;7631;52.088;5.088;2023-12-20T01:59:33;3.47;;;1.37;;
15063;SDS011;7631;52.088;5.088;2023-12-20T02:01:59;3.67;;;1.27;;
15063;SDS011;7631;52.088;5.088;2023-12-20T02:04:25;3.77;;;1.40;;
15063;SDS011;7631;52.088;5.088;2023-12-20T02:06:52;3.93;;;0.90;;
15063;SDS011;7631;52.088;5.088;2023-12-20T02:09:17;4.20;;;1.50;;
15063;SDS011;7631;52.088;5.088;2023-12-20T02:11:42;3.43;;;1.50;;
15063;SDS011;7631;52.088;5.088;2023-12-20T02:14:08;4.23;;;1.30;;
15063;SDS011;7631;52.088;5.088;2023-12-20T02:16:33;5.63;;;1.23;;
15063;SDS011;7631;52.088;5.088;2023-12-20T02:18:58;3.80;;;1.20;;
15063;SDS011;7631;52.088;5.088;2023-12-20T02:21:33;3.57;;;1.57;;
15063;SDS011;7631;52.088;5.088;2023-12-20T02:24:00;5.43;;;1.60;;
15063;SDS011;7631;52.088;5.088;2023-12-20T02:26:25;3.63;;;1.33;;
15063;SDS011;7631;52.088;5.088;2023-12-20T02:28:51;4.00;;;1.43;;
15063;SDS011;7631;52.088;5.088;2023-12-20T02:31:16;4.47;;;1.67;;
15063;SDS011;7631;52.088;5.088;2023-12-20T02:33:41;4.37;;;1.47;;
15063;SDS011;7631;52.088;5.088;2023-12-20T02:36:07;4.60;;;1.27;;
15063;SDS011;7631;52.088;5.088;2023-12-20T02:38:32;5.03;;;1.40;;
15063;SDS011;7631;52.088;5.088;2023-12-20T02:40:58;6.50;;;1.60;;
15063;SDS011;7631;52.088;5.088;2023-12-20T02:43:24;2.83;;;1.10;;
15063;SDS011;7631;52.088;5.088;2023-12-20T02:45:49;5.13;;;1.63;;
15063;SDS011;7631;52.088;5.088;2023-12-20T02:48:14;5.40;;;1.67;;
15063;SDS011;7631;52.088;5.088;2023-12-20T02:50:39;4.80;;;1.90;;
15063;SDS011;7631;52.088;5.088;2023-12-20T02:53:05;3.87;;;1.50;;
15063;SDS011;7631;52.088;5.088;2023-12-20T02:55:30;4.70;;;1.40;;
15063;SDS011;7631;52.088;5.088;2023-12-20T02:57:55;2.57;;;1.40;;
15063;SDS011;7631;52.088;5.088;2023-12-20T03:00:20;5.73;;;1.90;;
15063;SDS011;7631;52.088;5.088;2023-12-20T03:02:46;4.10;;;1.40;;
15063;SDS011;7631;52.088;5.088;2023-12-20T03:05:11;5.20;;;1.40;;
15063;SDS011;7631;52.088;5.088;2023-12-20T03:07:36;7.03;;;2.20;;
15063;SDS011;7631;52.088;5.088;2023-12-20T03:10:02;4.23;;;1.50;;
15063;SDS011;7631;52.088;5.088;2023-12-20T03:12:28;3.70;;;1.63;;
15063;SDS011;7631;52.088;5.088;2023-12-20T03:14:53;6.60;;;1.77;;
15063;SDS011;7631;52.088;5.088;2023-12-20T03:17:18;4.53;;;1.50;;
15063;SDS011;7631;52.088;5.088;2023-12-20T03:19:44;5.33;;;1.70;;
15063;SDS011;7631;52.088;5.088;2023-12-20T03:22:09;5.57;;;1.90;;
15063;SDS011;7631;52.088;5.088;2023-12-20T03:24:35;4.80;;;1.53;;
15063;SDS011;7631;52.088;5.088;2023-12-20T03:27:00;5.17;;;1.50;;
15063;SDS011;7631;52.088;5.088;2023-12-20T03:29:26;5.83;;;1.73;;
15063;SDS011;7631;52.088;5.088;2023-12-20T03:31:51;4.93;;;1.60;;
15063;SDS011;7631;52.088;5.088;2023-12-20T03:34:16;5.90;;;1.77;;
15063;SDS011;7631;52.088;5.088;2023-12-20T03:36:41;4.83;;;1.60;;
15063;SDS011;7631;52.088;5.088;2023-12-20T03:39:06;6.70;;;1.97;;
15063;SDS011;7631;52.088;5.088;2023-12-20T03:41:32;9.37;;;2.00;;
15063;SDS011;7631;52.088;5.088;2023-12-20T03:43:57;6.17;;;2.23;;
15063;SDS011;7631;52.088;5.088;2023-12-20T03:46:22;4.33;;;1.30;;
15063;SDS011;7631;52.088;5.088;2023-12-20T03:48:47;6.13;;;1.80;;
15063;SDS011;7631;52.088;5.088;2023-12-20T03:51:12;6.03;;;1.60;;
15063;SDS011;7631;52.088;5.088;2023-12-20T03:53:38;7.30;;;2.13;;
15063;SDS011;7631;52.088;5.088;2023-12-20T03:56:04;7.27;;;2.10;;
15063;SDS011;7631;52.088;5.088;2023-12-20T03:58:29;7.27;;;2.33;;
15063;SDS011;7631;52.088;5.088;2023-12-20T04:00:55;5.23;;;1.53;;
15063;SDS011;7631;52.088;5.088;2023-12-20T04:03:20;6.77;;;1.67;;
15063;SDS011;7631;52.088;5.088;2023-12-20T04:05:45;5.47;;;1.90;;
15063;SDS011;7631;52.088;5.088;2023-12-20T04:08:10;4.90;;;1.70;;
15063;SDS011;7631;52.088;5.088;2023-12-20T04:10:36;7.77;;;1.70;;
15063;SDS011;7631;52.088;5.088;2023-12-20T04:13:02;5.33;;;1.70;;
15063;SDS011;7631;52.088;5.088;2023-12-20T04:15:27;7.90;;;1.93;;
15063;SDS011;7631;52.088;5.088;2023-12-20T04:17:52;5.47;;;2.17;;
15063;SDS011;7631;52.088;5.088;2023-12-20T04:20:18;9.67;;;2.20;;
15063;SDS011;7631;52.088;5.088;2023-12-20T04:22:43;4.63;;;1.60;;
15063;SDS011;7631;52.088;5.088;2023-12-20T04:25:08;8.30;;;2.00;;
15063;SDS011;7631;52.088;5.088;2023-12-20T04:27:33;5.60;;;1.90;;
15063;SDS011;7631;52.088;5.088;2023-12-20T04:29:58;6.60;;;2.37;;
15063;SDS011;7631;52.088;5.088;2023-12-20T04:32:24;7.07;;;1.97;;
15063;SDS011;7631;52.088;5.088;2023-12-20T04:34:49;7.60;;;2.10;;
15063;SDS011;7631;52.088;5.088;2023-12-20T04:37:14;4.20;;;1.53;;
15063;SDS011;7631;52.088;5.088;2023-12-20T04:39:39;5.73;;;1.80;;
15063;SDS011;7631;52.088;5.088;2023-12-20T04:42:06;5.13;;;1.73;;
15063;SDS011;7631;52.088;5.088;2023-12-20T04:44:31;4.47;;;1.67;;
15063;SDS011;7631;52.088;5.088;2023-12-20T04:46:56;5.57;;;1.80;;
15063;SDS011;7631;52.088;5.088;2023-12-20T04:49:22;5.33;;;1.70;;
15063;SDS011;7631;52.088;5.088;2023-12-20T04:51:47;7.37;;;2.00;;
15063;SDS011;7631;52.088;5.088;2023-12-20T04:54:12;7.23;;;1.53;;
15063;SDS011;7631;52.088;5.088;2023-12-20T04:56:38;6.33;;;1.90;;
15063;SDS011;7631;52.088;5.088;2023-12-20T04:59:04;4.00;;;1.67;;
15063;SDS011;7631;52.088;5.088;2023-12-20T05:01:29;7.87;;;2.00;;
15063;SDS011;7631;52.088;5.088;2023-12-20T05:03:54;8.93;;;2.50;;
15063;SDS011;7631;52.088;5.088;2023-12-20T05:06:20;9.33;;;1.90;;
15063;SDS011;7631;52.088;5.088;2023-12-20T05:08:45;6.07;;;2.07;;
15063;SDS011;7631;52.088;5.088;2023-12-20T05:11:10;5.77;;;1.90;;
15063;SDS011;7631;52.088;5.088;2023-12-20T05:13:35;5.83;;;1.70;;
15063;SDS011;7631;52.088;5.088;2023-12-20T05:16:01;7.73;;;2.20;;
15063;SDS011;7631;52.088;5.088;2023-12-20T05:18:26;8.00;;;1.70;;
15063;SDS011;7631;52.088;5.088;2023-12-20T05:20:51;5.87;;;2.00;;
15063;SDS011;7631;52.088;5.088;2023-12-20T05:23:16;5.63;;;1.80;;
15063;SDS011;7631;52.088;5.088;2023-12-20T05:25:42;7.40;;;2.40;;
15063;SDS011;7631;52.088;5.088;2023-12-20T05:28:07;7.50;;;2.23;;
15063;SDS011;7631;52.088;5.088;2023-12-20T05:30:32;8.23;;;2.10;;
15063;SDS011;7631;52.088;5.088;2023-12-20T05:32:58;8.13;;;1.83;;
15063;SDS011;7631;52.088;5.088;2023-12-20T05:35:23;6.20;;;2.50;;
15063;SDS011;7631;52.088;5.088;2023-12-20T05:37:48;6.90;;;2.03;;
15063;SDS011;7631;52.088;5.088;2023-12-20T05:40:13;8.50;;;1.93;;
15063;SDS011;7631;52.088;5.088;2023-12-20T05:42:39;10.30;;;2.47;;
15063;SDS011;7631;52.088;5.088;2023-12-20T05:45:04;6.60;;;1.70;;
15063;SDS011;7631;52.088;5.088;2023-12-20T05:47:30;6.10;;;2.07;;
15063;SDS011;7631;52.088;5.088;2023-12-20T05:49:55;6.67;;;1.73;;
15063;SDS011;7631;52.088;5.088;2023-12-20T05:52:20;7.37;;;2.00;;
15063;SDS011;7631;52.088;5.088;2023-12-20T05:54:45;6.97;;;1.77;;
15063;SDS011;7631;52.088;5.088;2023-12-20T05:57:11;6.90;;;1.90;;
15063;SDS011;7631;52.088;5.088;2023-12-20T05:59:36;8.60;;;1.97;;
15063;SDS011;7631;52.088;5.088;2023-12-20T06:02:02;8.07;;;2.00;;
15063;SDS011;7631;52.088;5.088;2023-12-20T06:04:28;5.33;;;1.97;;
15063;SDS011;7631;52.088;5.088;2023-12-20T06:06:53;7.23;;;2.07;;
15063;SDS011;7631;52.088;5.088;2023-12-20T06:09:18;8.53;;;1.97;;
15063;SDS011;7631;52.088;5.088;2023-12-20T06:11:44;7.10;;;2.00;;
15063;SDS011;7631;52.088;5.088;2023-12-20T06:14:09;6.43;;;2.10;;
15063;SDS011;7631;52.088;5.088;2023-12-20T06:16:34;8.70;;;2.53;;
15063;SDS011;7631;52.088;5.088;2023-12-20T06:19:00;5.30;;;1.90;;
15063;SDS011;7631;52.088;5.088;2023-12-20T06:21:25;5.60;;;1.90;;
15063;SDS011;7631;52.088;5.088;2023-12-20T06:23:50;9.37;;;1.70;;
15063;SDS011;7631;52.088;5.088;2023-12-20T06:26:15;6.67;;;1.70;;
15063;SDS011;7631;52.088;5.088;2023-12-20T06:28:40;8.37;;;1.97;;
15063;SDS011;7631;52.088;5.088;2023-12-20T06:31:06;4.07;;;1.60;;
15063;SDS011;7631;52.088;5.088;2023-12-20T06:33:31;7.97;;;2.30;;
15063;SDS011;7631;52.088;5.088;2023-12-20T06:35:57;6.50;;;2.37;;
15063;SDS011;7631;52.088;5.088;2023-12-20T06:38:22;6.00;;;1.60;;
15063;SDS011;7631;52.088;5.088;2023-12-20T06:40:47;7.47;;;1.80;;
15063;SDS011;7631;52.088;5.088;2023-12-20T06:43:12;4.90;;;1.70;;
15063;SDS011;7631;52.088;5.088;2023-12-20T06:45:38;7.50;;;2.00;;
15063;SDS011;7631;52.088;5.088;2023-12-20T06:48:04;9.27;;;2.17;;
15063;SDS011;7631;52.088;5.088;2023-12-20T06:50:29;7.60;;;1.97;;
15063;SDS011;7631;52.088;5.088;2023-12-20T06:52:54;6.30;;;2.00;;
15063;SDS011;7631;52.088;5.088;2023-12-20T06:55:19;7.10;;;2.30;;
15063;SDS011;7631;52.088;5.088;2023-12-20T06:57:45;10.77;;;2.40;;
15063;SDS011;7631;52.088;5.088;2023-12-20T07:00:11;5.70;;;1.47;;
15063;SDS011;7631;52.088;5.088;2023-12-20T07:02:36;9.73;;;1.90;;
15063;SDS011;7631;52.088;5.088;2023-12-20T07:05:01;5.53;;;2.10;;
15063;SDS011;7631;52.088;5.088;2023-12-20T07:07:27;6.40;;;2.00;;
15063;SDS011;7631;52.088;5.088;2023-12-20T07:09:52;8.90;;;2.07;;
15063;SDS011;7631;52.088;5.088;2023-12-20T07:12:17;7.53;;;2.00;;
15063;SDS011;7631;52.088;5.088;2023-12-20T07:14:44;6.40;;;2.00;;
15063;SDS011;7631;52.088;5.088;2023-12-20T07:17:09;5.67;;;1.73;;
15063;SDS011;7631;52.088;5.088;2023-12-20T07:19:37;6.27;;;1.90;;
15063;SDS011;7631;52.088;5.088;2023-12-20T07:22:02;7.60;;;2.53;;
15063;SDS011;7631;52.088;5.088;2023-12-20T07:24:27;4.93;;;1.83;;
15063;SDS011;7631;52.088;5.088;2023-12-20T07:26:52;7.50;;;2.27;;
15063;SDS011;7631;52.088;5.088;2023-12-20T07:29:18;5.67;;;1.97;;
15063;SDS011;7631;52.088;5.088;2023-12-20T07:31:43;6.33;;;2.30;;
15063;SDS011;7631;52.088;5.088;2023-12-20T07:34:08;8.63;;;2.30;;
15063;SDS011;7631;52.088;5.088;2023-12-20T07:36:33;7.27;;;2.50;;
15063;SDS011;7631;52.088;5.088;2023-12-20T07:38:58;7.23;;;2.33;;
15063;SDS011;7631;52.088;5.088;2023-12-20T07:41:24;7.10;;;1.90;;
15063;SDS011;7631;52.088;5.088;2023-12-20T07:43:49;7.27;;;1.90;;
15063;SDS011;7631;52.088;5.088;2023-12-20T07:46:14;9.50;;;2.20;;
15063;SDS011;7631;52.088;5.088;2023-12-20T07:48:39;7.17;;;2.40;;
15063;SDS011;7631;52.088;5.088;2023-12-20T07:51:06;10.47;;;2.90;;
15063;SDS011;7631;52.088;5.088;2023-12-20T07:53:33;6.87;;;2.17;;
15063;SDS011;7631;52.088;5.088;2023-12-20T07:55:58;9.60;;;2.30;;
15063;SDS011;7631;52.088;5.088;2023-12-20T07:58:23;7.53;;;1.93;;
15063;SDS011;7631;52.088;5.088;2023-12-20T08:00:48;5.60;;;1.87;;
15063;SDS011;7631;52.088;5.088;2023-12-20T08:03:13;7.40;;;2.30;;
15063;SDS011;7631;52.088;5.088;2023-12-20T08:05:39;5.93;;;1.93;;
15063;SDS011;7631;52.088;5.088;2023-12-20T08:08:05;4.87;;;1.87;;
15063;SDS011;7631;52.088;5.088;2023-12-20T08:10:31;7.43;;;1.97;;
15063;SDS011;7631;52.088;5.088;2023-12-20T08:12:56;5.60;;;1.93;;
15063;SDS011;7631;52.088;5.088;2023-12-20T08:15:21;9.20;;;2.73;;
15063;SDS011;7631;52.088;5.088;2023-12-20T08:17:46;10.00;;;2.33;;
15063;SDS011;7631;52.088;5.088;2023-12-20T08:20:11;6.97;;;1.90;;
15063;SDS011;7631;52.088;5.088;2023-12-20T08:22:37;6.27;;;2.13;;
15063;SDS011;7631;52.088;5.088;2023-12-20T08:25:02;7.43;;;2.03;;
15063;SDS011;7631;52.088;5.088;2023-12-20T08:27:27;9.43;;;2.23;;
15063;SDS011;7631;52.088;5.088;2023-12-20T08:29:52;11.03;;;2.67;;
15063;SDS011;7631;52.088;5.088;2023-12-20T08:32:18;5.30;;;2.00;;
15063;SDS011;7631;52.088;5.088;2023-12-20T08:34:43;5.97;;;2.13;;
15063;SDS011;7631;52.088;5.088;2023-12-20T08:37:08;8.53;;;2.10;;
15063;SDS011;7631;52.088;5.088;2023-12-20T08:39:33;6.80;;;2.27;;
15063;SDS011;7631;52.088;5.088;2023-12-20T08:41:59;9.80;;;2.40;;
15063;SDS011;7631;52.088;5.088;2023-12-20T08:44:24;5.23;;;1.83;;
15063;SDS011;7631;52.088;5.088;2023-12-20T08:46:49;6.37;;;2.00;;
15063;SDS011;7631;52.088;5.088;2023-12-20T08:49:14;7.97;;;2.30;;
15063;SDS011;7631;52.088;5.088;2023-12-20T08:51:40;7.20;;;2.10;;
15063;SDS011;7631;52.088;5.088;2023-12-20T08:54:06;10.47;;;2.20;;
15063;SDS011;7631;52.088;5.088;2023-12-20T08:56:33;6.70;;;2.13;;
15063;SDS011;7631;52.088;5.088;2023-12-20T08:58:58;8.80;;;2.03;;
15063;SDS011;7631;52.088;5.088;2023-12-20T09:01:23;7.67;;;2.23;;
15063;SDS011;7631;52.088;5.088;2023-12-20T09:03:49;7.73;;;1.93;;
15063;SDS011;7631;52.088;5.088;2023-12-20T09:06:14;5.83;;;2.13;;
15063;SDS011;7631;52.088;5.088;2023-12-20T09:08:39;6.13;;;1.73;;
15063;SDS011;7631;52.088;5.088;2023-12-20T09:11:04;8.33;;;2.40;;
15063;SDS011;7631;52.088;5.088;2023-12-20T09:13:30;8.60;;;2.03;;
15063;SDS011;7631;52.088;5.088;2023-12-20T09:15:56;8.87;;;2.17;;
15063;SDS011;7631;52.088;5.088;2023-12-20T09:18:22;9.47;;;2.40;;
15063;SDS011;7631;52.088;5.088;2023-12-20T09:20:47;9.53;;;2.67;;
15063;SDS011;7631;52.088;5.088;2023-12-20T09:23:12;7.63;;;2.10;;
15063;SDS011;7631;52.088;5.088;2023-12-20T09:25:37;8.13;;;2.17;;
15063;SDS011;7631;52.088;5.088;2023-12-20T09:28:03;9.37;;;2.20;;
15063;SDS011;7631;52.088;5.088;2023-12-20T09:30:28;7.13;;;2.20;;
15063;SDS011;7631;52.088;5.088;2023-12-20T09:32:54;5.73;;;1.90;;
15063;SDS011;7631;52.088;5.088;2023-12-20T09:35:19;10.63;;;2.43;;
15063;SDS011;7631;52.088;5.088;2023-12-20T09:37:45;8.57;;;2.53;;
15063;SDS011;7631;52.088;5.088;2023-12-20T09:40:12;8.63;;;2.30;;
15063;SDS011;7631;52.088;5.088;2023-12-20T09:42:39;6.67;;;2.07;;
15063;SDS011;7631;52.088;5.088;2023-12-20T09:45:10;7.37;;;1.90;;
15063;SDS011;7631;52.088;5.088;2023-12-20T09:47:36;10.27;;;2.33;;
15063;SDS011;7631;52.088;5.088;2023-12-20T09:50:02;6.90;;;1.83;;
15063;SDS011;7631;52.088;5.088;2023-12-20T09:52:27;9.40;;;2.80;;
15063;SDS011;7631;52.088;5.088;2023-12-20T09:54:53;7.87;;;2.30;;
15063;SDS011;7631;52.088;5.088;2023-12-20T09:57:20;5.87;;;1.97;;
15063;SDS011;7631;52.088;5.088;2023-12-20T09:59:45;10.17;;;2.30;;
15063;SDS011;7631;52.088;5.088;2023-12-20T10:02:11;8.13;;;2.37;;
15063;SDS011;7631;52.088;5.088;2023-12-20T10:04:37;6.20;;;2.13;;
15063;SDS011;7631;52.088;5.088;2023-12-20T10:07:04;7.50;;;2.30;;
15063;SDS011;7631;52.088;5.088;2023-12-20T10:09:31;8.80;;;2.87;;
15063;SDS011;7631;52.088;5.088;2023-12-20T10:11:56;5.87;;;2.17;;
15063;SDS011;7631;52.088;5.088;2023-12-20T10:14:22;6.33;;;2.10;;
15063;SDS011;7631;52.088;5.088;2023-12-20T10:16:50;8.50;;;2.20;;
15063;SDS011;7631;52.088;5.088;2023-12-20T10:19:19;8.33;;;2.13;;
15063;SDS011;7631;52.088;5.088;2023-12-20T10:21:44;8.07;;;1.93;;
15063;SDS011;7631;52.088;5.088;2023-12-20T10:24:10;8.73;;;2.57;;
15063;SDS011;7631;52.088;5.088;2023-12-20T10:26:41;10.33;;;2.33;;
15063;SDS011;7631;52.088;5.088;2023-12-20T10:29:06;6.60;;;2.50;;
15063;SDS011;7631;52.088;5.088;2023-12-20T10:31:35;7.20;;;2.00;;
15063;SDS011;7631;52.088;5.088;2023-12-20T10:34:01;7.80;;;2.53;;
15063;SDS011;7631;52.088;5.088;2023-12-20T10:36:27;9.27;;;2.30;;
15063;SDS011;7631;52.088;5.088;2023-12-20T10:38:53;5.93;;;2.30;;
15063;SDS011;7631;52.088;5.088;2023-12-20T10:41:19;6.93;;;2.00;;
15063;SDS011;7631;52.088;5.088;2023-12-20T10:43:47;6.13;;;2.17;;
15063;SDS011;7631;52.088;5.088;2023-12-20T10:46:13;6.13;;;1.80;;
15063;SDS011;7631;52.088;5.088;2023-12-20T10:48:38;6.77;;;2.20;;
15063;SDS011;7631;52.088;5.088;2023-12-20T10:51:04;7.30;;;2.37;;
15063;SDS011;7631;52.088;5.088;2023-12-20T10:53:30;6.57;;;1.70;;
15063;SDS011;7631;52.088;5.088;2023-12-20T10:55:55;9.13;;;2.23;;
15063;SDS011;7631;52.088;5.088;2023-12-20T10:58:24;8.10;;;2.43;;
15063;SDS011;7631;52.088;5.088;2023-12-20T11:00:49;6.47;;;2.30;;
15063;SDS011;7631;52.088;5.088;2023-12-20T11:03:17;8.20;;;2.17;;
15063;SDS011;7631;52.088;5.088;2023-12-20T11:05:44;7.53;;;2.13;;
15063;SDS011;7631;52.088;5.088;2023-12-20T11:11:09;8.57;;;2.17;;
15063;SDS011;7631;52.088;5.088;2023-12-20T11:13:40;10.87;;;2.03;;
15063;SDS011;7631;52.088;5.088;2023-12-20T11:16:05;7.47;;;2.33;;
15063;SDS011;7631;52.088;5.088;2023-12-20T11:18:31;9.80;;;2.33;;
15063;SDS011;7631;52.088;5.088;2023-12-20T11:21:00;8.10;;;2.00;;
15063;SDS011;7631;52.088;5.088;2023-12-20T11:23:25;7.43;;;2.23;;
15063;SDS011;7631;52.088;5.088;2023-12-20T11:25:54;8.80;;;2.30;;
15063;SDS011;7631;52.088;5.088;2023-12-20T11:28:25;5.63;;;1.87;;
15063;SDS011;7631;52.088;5.088;2023-12-20T11:30:52;8.57;;;2.30;;
15063;SDS011;7631;52.088;5.088;2023-12-20T11:33:20;8.37;;;2.23;;
15063;SDS011;7631;52.088;5.088;2023-12-20T11:35:46;6.40;;;2.20;;
15063;SDS011;7631;52.088;5.088;2023-12-20T11:38:12;9.30;;;2.07;;
15063;SDS011;7631;52.088;5.088;2023-12-20T11:40:38;10.07;;;2.37;;
15063;SDS011;7631;52.088;5.088;2023-12-20T11:43:03;8.00;;;2.90;;
15063;SDS011;7631;52.088;5.088;2023-12-20T11:45:30;7.60;;;2.03;;
15063;SDS011;7631;52.088;5.088;2023-12-20T11:47:56;6.70;;;1.80;;
15063;SDS011;7631;52.088;5.088;2023-12-20T11:50:22;7.20;;;1.80;;
15063;SDS011;7631;52.088;5.088;2023-12-20T11:52:48;7.83;;;2.03;;
15063;SDS011;7631;52.088;5.088;2023-12-20T11:55:13;8.60;;;1.83;;
15063;SDS011;7631;52.088;5.088;2023-12-20T11:57:39;6.87;;;1.90;;
15063;SDS011;7631;52.088;5.088;2023-12-20T12:00:04;6.43;;;1.97;;
15063;SDS011;7631;52.088;5.088;2023-12-20T12:02:31;8.63;;;2.63;;
15063;SDS011;7631;52.088;5.088;2023-12-20T12:04:56;6.00;;;1.90;;
15063;SDS011;7631;52.088;5.088;2023-12-20T12:07:23;8.30;;;2.50;;
15063;SDS011;7631;52.088;5.088;2023-12-20T12:09:48;6.13;;;2.03;;
15063;SDS011;7631;52.088;5.088;2023-12-20T12:12:14;8.60;;;2.17;;
15063;SDS011;7631;52.088;5.088;2023-12-20T12:14:40;6.53;;;2.10;;
15063;SDS011;7631;52.088;5.088;2023-12-20T12:17:11;10.07;;;2.17;;
15063;SDS011;7631;52.088;5.088;2023-12-20T12:19:37;6.50;;;1.63;;
15063;SDS011;7631;52.088;5.088;2023-12-20T12:22:04;6.60;;;2.20;;
15063;SDS011;7631;52.088;5.088;2023-12-20T12:24:31;9.27;;;2.70;;
15063;SDS011;7631;52.088;5.088;2023-12-20T12:26:57;7.37;;;2.13;;
15063;SDS011;7631;52.088;5.088;2023-12-20T12:29:22;7.00;;;2.10;;
15063;SDS011;7631;52.088;5.088;2023-12-20T12:31:49;5.37;;;2.03;;
15063;SDS011;7631;52.088;5.088;2023-12-20T12:34:14;4.27;;;1.60;;
15063;SDS011;7631;52.088;5.088;2023-12-20T12:36:41;3.43;;;1.40;;
15063;SDS011;7631;52.088;5.088;2023-12-20T12:39:06;8.40;;;2.10;;
15063;SDS011;7631;52.088;5.088;2023-12-20T12:41:31;8.13;;;2.07;;
15063;SDS011;7631;52.088;5.088;2023-12-20T12:43:57;4.17;;;1.70;;
15063;SDS011;7631;52.088;5.088;2023-12-20T12:46:22;5.83;;;1.80;;
15063;SDS011;7631;52.088;5.088;2023-12-20T12:48:47;8.13;;;2.20;;
15063;SDS011;7631;52.088;5.088;2023-12-20T12:51:12;5.57;;;1.90;;
15063;SDS011;7631;52.088;5.088;2023-12-20T12:53:38;5.10;;;2.07;;
15063;SDS011;7631;52.088;5.088;2023-12-20T12:56:04;7.87;;;2.20;;
15063;SDS011;7631;52.088;5.088;2023-12-20T12:58:29;4.77;;;1.77;;
15063;SDS011;7631;52.088;5.088;2023-12-20T13:00:54;5.97;;;1.90;;
15063;SDS011;7631;52.088;5.088;2023-12-20T13:03:20;10.73;;;2.33;;
15063;SDS011;7631;52.088;5.088;2023-12-20T13:05:45;5.63;;;1.60;;
15063;SDS011;7631;52.088;5.088;2023-12-20T13:08:12;6.50;;;1.83;;
15063;SDS011;7631;52.088;5.088;2023-12-20T13:10:38;4.43;;;1.67;;
15063;SDS011;7631;52.088;5.088;2023-12-20T13:13:03;6.83;;;2.27;;
15063;SDS011;7631;52.088;5.088;2023-12-20T13:15:29;8.47;;;1.83;;
15063;SDS011;7631;52.088;5.088;2023-12-20T13:17:55;5.43;;;2.13;;
15063;SDS011;7631;52.088;5.088;2023-12-20T13:20:20;6.10;;;1.90;;
15063;SDS011;7631;52.088;5.088;2023-12-20T13:22:47;6.27;;;1.57;;
15063;SDS011;7631;52.088;5.088;2023-12-20T13:25:12;5.83;;;1.90;;
15063;SDS011;7631;52.088;5.088;2023-12-20T13:27:38;8.30;;;2.00;;
15063;SDS011;7631;52.088;5.088;2023-12-20T13:30:03;7.17;;;1.60;;
15063;SDS011;7631;52.088;5.088;2023-12-20T13:32:28;7.10;;;2.03;;
15063;SDS011;7631;52.088;5.088;2023-12-20T13:34:54;6.80;;;1.70;;
15063;SDS011;7631;52.088;5.088;2023-12-20T13:37:19;7.13;;;2.00;;
15063;SDS011;7631;52.088;5.088;2023-12-20T13:39:44;6.60;;;1.90;;
15063;SDS011;7631;52.088;5.088;2023-12-20T13:42:09;5.50;;;1.60;;
15063;SDS011;7631;52.088;5.088;2023-12-20T13:44:35;6.73;;;1.87;;
15063;SDS011;7631;52.088;5.088;2023-12-20T13:47:00;7.87;;;1.60;;
15063;SDS011;7631;52.088;5.088;2023-12-20T13:49:26;6.33;;;1.50;;
15063;SDS011;7631;52.088;5.088;2023-12-20T13:51:52;7.80;;;2.20;;
15063;SDS011;7631;52.088;5.088;2023-12-20T13:54:20;7.20;;;1.87;;
15063;SDS011;7631;52.088;5.088;2023-12-20T13:56:47;6.93;;;1.90;;
15063;SDS011;7631;52.088;5.088;2023-12-20T13:59:12;8.43;;;1.77;;
15063;SDS011;7631;52.088;5.088;2023-12-20T14:01:38;6.13;;;2.20;;
15063;SDS011;7631;52.088;5.088;2023-12-20T14:04:04;4.83;;;1.63;;
15063;SDS011;7631;52.088;5.088;2023-12-20T14:06:29;4.30;;;1.33;;
15063;SDS011;7631;52.088;5.088;2023-12-20T14:08:55;6.27;;;1.67;;
15063;SDS011;7631;52.088;5.088;2023-12-20T14:11:20;6.73;;;2.10;;
15063;SDS011;7631;52.088;5.088;2023-12-20T14:13:45;4.40;;;1.53;;
15063;SDS011;7631;52.088;5.088;2023-12-20T14:16:10;6.00;;;1.60;;
15063;SDS011;7631;52.088;5.088;2023-12-20T14:18:36;4.73;;;2.07;;
15063;SDS011;7631;52.088;5.088;2023-12-20T14:21:01;5.83;;;2.03;;
15063;SDS011;7631;52.088;5.088;2023-12-20T14:23:26;6.40;;;2.13;;
15063;SDS011;7631;52.088;5.088;2023-12-20T14:25:51;5.07;;;1.77;;
15063;SDS011;7631;52.088;5.088;2023-12-20T14:28:17;6.80;;;1.77;;
15063;SDS011;7631;52.088;5.088;2023-12-20T14:30:42;5.93;;;1.60;;
15063;SDS011;7631;52.088;5.088;2023-12-20T14:33:08;4.17;;;1.70;;
15063;SDS011;7631;52.088;5.088;2023-12-20T14:35:33;5.83;;;1.40;;
15063;SDS011;7631;52.088;5.088;2023-12-20T14:37:58;6.70;;;2.03;;
15063;SDS011;7631;52.088;5.088;2023-12-20T14:40:23;7.47;;;2.10;;
15063;SDS011;7631;52.088;5.088;2023-12-20T14:42:49;5.10;;;1.40;;
15063;SDS011;7631;52.088;5.088;2023-12-20T14:45:15;6.00;;;2.10;;
15063;SDS011;7631;52.088;5.088;2023-12-20T14:47:41;5.43;;;1.90;;
15063;SDS011;7631;52.088;5.088;2023-12-20T14:50:06;6.07;;;1.77;;
15063;SDS011;7631;52.088;5.088;2023-12-20T14:52:32;5.63;;;1.80;;